createdAt,value
2022-09-22T00:00:07.376Z,5.23
2022-09-22T00:01:07.490Z,5.11
2022-09-22T00:02:07.417Z,5.12
2022-09-22T00:03:07.353Z,5.18
2022-09-22T00:04:07.373Z,5.10
2022-09-22T00:05:07.334Z,5.17
2022-09-22T00:06:07.331Z,5.23
2022-09-22T00:07:07.312Z,5.18
2022-09-22T00:08:07.314Z,5.17
2022-09-22T00:09:07.388Z,5.17
2022-09-22T00:10:07.289Z,5.10
2022-09-22T00:11:07.294Z,5.15
2022-09-22T00:12:07.280Z,5.08
2022-09-22T00:13:07.273Z,5.11
2022-09-22T00:14:07.285Z,5.10
2022-09-22T00:15:07.259Z,5.11
2022-09-22T00:16:07.343Z,5.08
2022-09-22T00:17:07.245Z,5.15
2022-09-22T00:18:07.233Z,5.07
2022-09-22T00:19:07.235Z,4.92
2022-09-22T00:20:07.222Z,4.96
2022-09-22T00:21:07.222Z,4.96
2022-09-22T00:22:07.208Z,4.96
2022-09-22T00:23:07.204Z,4.97
2022-09-22T00:24:07.413Z,4.89
2022-09-22T00:25:07.175Z,4.89
2022-09-22T00:26:07.207Z,4.90
2022-09-22T00:27:07.164Z,4.87
2022-09-22T00:28:07.155Z,4.80
2022-09-22T00:29:07.143Z,4.80
2022-09-22T00:31:07.265Z,4.89
2022-09-22T00:32:07.705Z,4.75
2022-09-22T00:33:09.174Z,4.73
2022-09-22T00:34:08.313Z,4.68
2022-09-22T00:35:08.306Z,4.77
2022-09-22T00:36:08.297Z,4.70
2022-09-22T00:37:08.295Z,4.68
2022-09-22T00:38:08.272Z,4.82
2022-09-22T00:39:08.268Z,4.80
2022-09-22T00:40:08.323Z,4.77
2022-09-22T00:41:08.256Z,4.75
2022-09-22T00:42:08.255Z,4.75
2022-09-22T00:43:08.267Z,4.75
2022-09-22T00:44:08.270Z,4.74
2022-09-22T00:45:08.222Z,4.74
2022-09-22T00:46:08.213Z,4.73
2022-09-22T00:47:08.222Z,4.77
2022-09-22T00:48:08.207Z,4.73
2022-09-22T00:49:08.201Z,4.67
2022-09-22T00:50:08.176Z,4.67
2022-09-22T00:51:09.171Z,4.70
2022-09-22T00:52:08.181Z,4.78
2022-09-22T00:53:08.160Z,4.77
2022-09-22T00:54:08.158Z,4.74
2022-09-22T00:55:08.151Z,4.63
2022-09-22T00:56:09.113Z,4.71
2022-09-22T00:57:08.133Z,4.55
2022-09-22T00:58:08.126Z,4.67
2022-09-22T00:59:08.183Z,4.56
2022-09-22T01:00:08.129Z,4.67
2022-09-22T01:01:08.146Z,4.58
2022-09-22T01:02:08.145Z,4.56
2022-09-22T01:03:08.072Z,4.56
2022-09-22T01:04:08.082Z,4.55
2022-09-22T01:05:08.071Z,4.60
2022-09-22T01:06:08.068Z,4.63
2022-09-22T01:07:08.681Z,4.55
2022-09-22T01:08:08.038Z,4.58
2022-09-22T01:09:08.028Z,4.60
2022-09-22T01:10:08.042Z,4.60
2022-09-22T01:11:08.010Z,4.55
2022-09-22T01:12:08.027Z,4.60
2022-09-22T01:13:08.015Z,4.58
2022-09-22T01:14:08.046Z,4.63
2022-09-22T01:15:07.987Z,4.56
2022-09-22T01:16:08.033Z,4.55
2022-09-22T01:17:07.964Z,4.55
2022-09-22T01:18:07.966Z,4.58
2022-09-22T01:19:07.949Z,4.56
2022-09-22T01:20:07.934Z,4.53
2022-09-22T01:21:07.941Z,4.68
2022-09-22T01:22:07.930Z,4.58
2022-09-22T01:23:07.927Z,4.53
2022-09-22T01:24:07.905Z,4.50
2022-09-22T01:25:07.917Z,4.52
2022-09-22T01:26:07.901Z,4.53
2022-09-22T01:27:07.892Z,4.53
2022-09-22T01:28:08.679Z,4.53
2022-09-22T01:29:07.881Z,4.48
2022-09-22T01:30:07.876Z,4.42
2022-09-22T01:31:07.886Z,4.44
2022-09-22T01:32:07.848Z,4.45
2022-09-22T01:33:07.895Z,4.30
2022-09-22T01:34:07.831Z,4.42
2022-09-22T01:35:07.822Z,4.40
2022-09-22T01:36:07.821Z,4.40
2022-09-22T01:37:07.808Z,4.42
2022-09-22T01:38:07.794Z,4.41
2022-09-22T01:39:08.795Z,4.42
2022-09-22T01:40:07.857Z,4.35
2022-09-22T01:41:07.770Z,4.40
2022-09-22T01:42:07.776Z,4.38
2022-09-22T01:43:07.751Z,4.34
2022-09-22T01:44:07.756Z,4.32
2022-09-22T01:45:07.745Z,4.28
2022-09-22T01:46:07.808Z,4.37
2022-09-22T01:47:07.736Z,4.30
2022-09-22T01:48:07.717Z,4.31
2022-09-22T01:49:07.718Z,4.20
2022-09-22T01:50:07.708Z,4.24
2022-09-22T01:51:07.722Z,4.26
2022-09-22T01:52:07.695Z,4.24
2022-09-22T01:53:07.678Z,4.17
2022-09-22T01:54:07.679Z,4.20
2022-09-22T01:55:07.669Z,4.22
2022-09-22T01:56:07.661Z,4.20
2022-09-22T01:57:07.638Z,4.28
2022-09-22T01:58:07.632Z,4.26
2022-09-22T01:59:07.625Z,4.19
2022-09-22T02:00:07.620Z,4.17
2022-09-22T02:01:10.967Z,4.14
2022-09-22T02:02:09.747Z,4.19
2022-09-22T02:03:07.599Z,4.17
2022-09-22T02:04:07.581Z,4.14
2022-09-22T02:05:07.577Z,4.02
2022-09-22T02:06:07.584Z,4.17
2022-09-22T02:07:07.573Z,4.14
2022-09-22T02:08:08.194Z,4.10
2022-09-22T02:09:07.681Z,4.13
2022-09-22T02:10:07.562Z,4.08
2022-09-22T02:11:07.546Z,4.08
2022-09-22T02:12:07.525Z,4.10
2022-09-22T02:13:07.532Z,3.98
2022-09-22T02:14:07.516Z,3.98
2022-09-22T02:15:07.496Z,4.05
2022-09-22T02:16:07.553Z,4.02
2022-09-22T02:17:07.519Z,3.95
2022-09-22T02:18:07.484Z,4.05
2022-09-22T02:19:12.953Z,4.04
2022-09-22T02:20:09.466Z,3.99
2022-09-22T02:21:07.462Z,3.98
2022-09-22T02:22:07.454Z,4.04
2022-09-22T02:23:07.442Z,4.05
2022-09-22T02:24:07.586Z,4.01
2022-09-22T02:25:07.443Z,4.08
2022-09-22T02:26:07.412Z,4.14
2022-09-22T02:27:07.409Z,4.13
2022-09-22T02:28:07.407Z,4.31
2022-09-22T02:29:07.413Z,4.22
2022-09-22T02:30:07.397Z,4.30
2022-09-22T02:31:21.752Z,4.26
2022-09-22T02:32:09.437Z,4.23
2022-09-22T02:33:07.360Z,4.24
2022-09-22T02:34:07.356Z,4.41
2022-09-22T02:35:07.357Z,4.48
2022-09-22T02:36:07.337Z,4.49
2022-09-22T02:37:07.340Z,4.49
2022-09-22T02:38:07.326Z,4.59
2022-09-22T02:39:07.760Z,4.60
2022-09-22T02:40:07.357Z,4.53
2022-09-22T02:41:07.305Z,4.59
2022-09-22T02:42:07.307Z,4.52
2022-09-22T02:43:07.296Z,4.59
2022-09-22T02:44:07.283Z,4.63
2022-09-22T02:45:07.707Z,4.62
2022-09-22T02:46:07.316Z,4.60
2022-09-22T02:47:07.303Z,4.73
2022-09-22T02:48:07.301Z,4.66
2022-09-22T02:49:08.201Z,4.70
2022-09-22T02:50:07.246Z,4.77
2022-09-22T02:51:07.214Z,4.78
2022-09-22T02:52:07.209Z,4.77
2022-09-22T02:53:07.201Z,4.84
2022-09-22T02:54:07.257Z,4.80
2022-09-22T02:55:07.200Z,4.78
2022-09-22T02:56:07.176Z,4.74
2022-09-22T02:57:07.176Z,4.84
2022-09-22T02:58:07.162Z,4.82
2022-09-22T02:59:07.150Z,4.80
2022-09-22T03:00:07.151Z,4.80
2022-09-22T03:01:07.175Z,4.84
2022-09-22T03:02:07.130Z,4.87
2022-09-22T03:03:07.123Z,4.77
2022-09-22T03:04:07.112Z,4.92
2022-09-22T03:05:07.161Z,4.90
2022-09-22T03:06:07.092Z,4.96
2022-09-22T03:07:07.098Z,4.87
2022-09-22T03:08:07.074Z,4.97
2022-09-22T03:09:07.240Z,4.99
2022-09-22T03:10:07.065Z,4.99
2022-09-22T03:11:07.050Z,4.94
2022-09-22T03:12:07.050Z,4.93
2022-09-22T03:13:16.396Z,4.99
2022-09-22T03:14:09.063Z,4.94
2022-09-22T03:15:07.031Z,5.02
2022-09-22T03:16:07.067Z,4.96
2022-09-22T03:17:07.006Z,5.00
2022-09-22T03:18:06.992Z,5.00
2022-09-22T03:19:06.987Z,4.97
2022-09-22T03:20:06.992Z,5.00
2022-09-22T03:21:06.981Z,5.04
2022-09-22T03:22:06.972Z,5.07
2022-09-22T03:23:06.971Z,4.96
2022-09-22T03:24:07.075Z,4.96
2022-09-22T03:25:06.951Z,4.90
2022-09-22T03:26:07.699Z,4.92
2022-09-22T03:27:06.936Z,4.97
2022-09-22T03:28:06.929Z,5.02
2022-09-22T03:29:06.916Z,4.93
2022-09-22T03:30:06.902Z,4.94
2022-09-22T03:31:06.983Z,4.93
2022-09-22T03:32:06.895Z,4.99
2022-09-22T03:33:07.711Z,4.92
2022-09-22T03:34:06.876Z,5.04
2022-09-22T03:35:06.873Z,4.96
2022-09-22T03:36:06.856Z,5.00
2022-09-22T03:37:07.109Z,4.93
2022-09-22T03:38:54.754Z,5.04
2022-09-22T03:39:54.714Z,5.00
2022-09-22T03:40:54.704Z,5.07
2022-09-22T03:41:54.708Z,5.14
2022-09-22T03:42:54.701Z,5.08
2022-09-22T03:43:54.683Z,5.00
2022-09-22T03:44:54.682Z,5.10
2022-09-22T03:45:54.705Z,5.10
2022-09-22T03:46:54.662Z,5.11
2022-09-22T03:47:54.660Z,5.15
2022-09-22T03:48:54.642Z,5.15
2022-09-22T03:49:54.634Z,5.14
2022-09-22T03:50:55.722Z,5.23
2022-09-22T03:51:55.723Z,5.10
2022-09-22T03:52:55.705Z,5.20
2022-09-22T03:53:55.701Z,5.23
2022-09-22T03:54:55.697Z,5.23
2022-09-22T03:55:55.680Z,5.28
2022-09-22T03:56:55.713Z,5.18
2022-09-22T03:57:55.651Z,5.14
2022-09-22T03:58:56.659Z,5.17
2022-09-22T03:59:55.636Z,5.12
2022-09-22T04:00:56.707Z,5.21
2022-09-22T04:01:58.359Z,5.20
2022-09-22T04:02:56.618Z,5.12
2022-09-22T04:03:55.674Z,5.17
2022-09-22T04:04:55.605Z,5.08
2022-09-22T04:05:55.624Z,5.11
2022-09-22T04:06:55.590Z,5.14
2022-09-22T04:07:55.592Z,5.14
2022-09-22T04:08:55.581Z,5.18
2022-09-22T04:09:55.567Z,5.15
2022-09-22T04:10:55.564Z,5.25
2022-09-22T04:11:55.552Z,5.10
2022-09-22T04:12:55.544Z,5.25
2022-09-22T04:13:55.545Z,5.21
2022-09-22T04:14:55.526Z,5.17
2022-09-22T04:15:55.519Z,5.17
2022-09-22T04:16:55.574Z,5.05
2022-09-22T04:17:55.505Z,5.12
2022-09-22T04:18:55.502Z,5.15
2022-09-22T04:19:55.494Z,5.14
2022-09-22T04:20:55.482Z,5.08
2022-09-22T04:21:57.360Z,5.12
2022-09-22T04:22:56.494Z,5.12
2022-09-22T04:23:55.482Z,5.20
2022-09-22T04:24:55.523Z,5.25
2022-09-22T04:25:55.449Z,5.14
2022-09-22T04:27:19.127Z,5.14
2022-09-22T04:27:57.424Z,5.20
2022-09-22T04:28:55.439Z,5.18
2022-09-22T04:29:55.435Z,5.15
2022-09-22T04:30:55.463Z,5.28
2022-09-22T04:31:55.397Z,5.33
2022-09-22T04:32:55.383Z,5.32
2022-09-22T04:33:55.388Z,5.23
2022-09-22T04:34:55.384Z,5.18
2022-09-22T04:35:55.359Z,5.26
2022-09-22T04:36:55.360Z,5.33
2022-09-22T04:37:55.359Z,5.29
2022-09-22T04:38:55.341Z,5.35
2022-09-22T04:39:55.348Z,5.38
2022-09-22T04:40:55.337Z,5.25
2022-09-22T04:41:55.326Z,5.18
2022-09-22T04:42:55.313Z,5.18
2022-09-22T04:43:55.310Z,5.26
2022-09-22T04:44:55.306Z,5.18
2022-09-22T04:45:55.371Z,5.29
2022-09-22T04:46:55.282Z,5.14
2022-09-22T04:47:55.271Z,5.29
2022-09-22T04:48:55.259Z,5.21
2022-09-22T04:49:55.259Z,5.30
2022-09-22T04:50:55.269Z,5.25
2022-09-22T04:51:55.241Z,5.30
2022-09-22T04:52:55.240Z,5.21
2022-09-22T04:53:55.227Z,5.36
2022-09-22T04:54:55.249Z,5.30
2022-09-22T04:55:55.215Z,5.23
2022-09-22T04:56:55.205Z,5.32
2022-09-22T04:57:55.197Z,5.36
2022-09-22T04:58:55.187Z,5.47
2022-09-22T04:59:55.165Z,5.48
2022-09-22T05:00:55.212Z,5.50
2022-09-22T05:01:55.152Z,5.43
2022-09-22T05:02:55.199Z,5.48
2022-09-22T05:03:55.134Z,5.41
2022-09-22T05:04:55.126Z,5.48
2022-09-22T05:05:55.132Z,5.56
2022-09-22T05:06:55.134Z,5.59
2022-09-22T05:07:56.096Z,5.50
2022-09-22T05:08:55.096Z,5.43
2022-09-22T05:09:55.089Z,5.53
2022-09-22T05:10:55.086Z,5.43
2022-09-22T05:11:55.070Z,5.51
2022-09-22T05:12:55.070Z,5.38
2022-09-22T05:13:55.062Z,5.36
2022-09-22T05:14:55.059Z,5.32
2022-09-22T05:15:55.046Z,5.26
2022-09-22T05:16:55.092Z,5.23
2022-09-22T05:17:55.035Z,5.36
2022-09-22T05:18:55.014Z,5.29
2022-09-22T05:19:55.020Z,5.39
2022-09-22T05:20:55.100Z,5.28
2022-09-22T05:21:55.032Z,5.32
2022-09-22T05:22:54.986Z,5.23
2022-09-22T05:23:54.983Z,5.11
2022-09-22T05:24:54.968Z,5.20
2022-09-22T05:25:54.957Z,5.11
2022-09-22T05:26:54.983Z,5.11
2022-09-22T05:27:54.929Z,5.11
2022-09-22T05:28:55.958Z,5.08
2022-09-22T05:29:54.927Z,5.14
2022-09-22T05:30:54.928Z,5.21
2022-09-22T05:31:54.976Z,5.21
2022-09-22T05:32:54.899Z,5.04
2022-09-22T05:33:54.898Z,4.96
2022-09-22T05:34:54.900Z,4.90
2022-09-22T05:35:54.899Z,4.90
2022-09-22T05:36:54.870Z,4.89
2022-09-22T05:37:54.874Z,4.89
2022-09-22T05:38:54.862Z,4.87
2022-09-22T05:39:54.851Z,4.94
2022-09-22T05:40:54.850Z,4.92
2022-09-22T05:41:54.841Z,4.86
2022-09-22T05:42:54.831Z,4.90
2022-09-22T05:43:54.826Z,4.82
2022-09-22T05:44:54.823Z,4.89
2022-09-22T05:45:54.847Z,4.90
2022-09-22T05:46:54.828Z,4.82
2022-09-22T05:47:54.805Z,4.87
2022-09-22T05:48:54.778Z,4.87
2022-09-22T05:49:54.811Z,4.86
2022-09-22T05:50:54.761Z,4.80
2022-09-22T05:51:54.764Z,4.93
2022-09-22T05:52:54.750Z,4.90
2022-09-22T05:53:54.761Z,4.97
2022-09-22T05:54:54.732Z,5.02
2022-09-22T05:55:54.722Z,5.07
2022-09-22T05:56:54.717Z,5.07
2022-09-22T05:57:54.725Z,5.14
2022-09-22T05:58:54.713Z,5.14
2022-09-22T05:59:54.771Z,5.14
2022-09-22T06:00:54.757Z,5.15
2022-09-22T06:01:59.359Z,5.36
2022-09-22T06:02:56.737Z,5.35
2022-09-22T06:03:54.671Z,5.44
2022-09-22T06:04:54.645Z,5.46
2022-09-22T06:05:54.657Z,5.51
2022-09-22T06:06:54.649Z,5.51
2022-09-22T06:07:54.628Z,5.62
2022-09-22T06:08:54.743Z,5.75
2022-09-22T06:09:54.708Z,5.83
2022-09-22T06:10:54.626Z,5.79
2022-09-22T06:12:28.130Z,5.90
2022-09-22T06:12:54.585Z,5.97
2022-09-22T06:13:54.591Z,5.89
2022-09-22T06:14:54.566Z,5.98
2022-09-22T06:15:54.556Z,5.98
2022-09-22T06:16:55.561Z,6.01
2022-09-22T06:17:54.541Z,5.98
2022-09-22T06:18:54.539Z,6.09
2022-09-22T06:19:54.529Z,6.05
2022-09-22T06:20:54.524Z,6.14
2022-09-22T06:21:55.221Z,6.05
2022-09-22T06:22:55.139Z,6.05
2022-09-22T06:23:54.500Z,6.14
2022-09-22T06:24:54.512Z,6.09
2022-09-22T06:25:54.498Z,6.20
2022-09-22T06:26:54.747Z,6.17
2022-09-22T06:27:54.476Z,6.16
2022-09-22T06:28:54.525Z,6.28
2022-09-22T06:29:54.459Z,6.35
2022-09-22T06:30:54.447Z,6.35
2022-09-22T06:31:54.480Z,6.41
2022-09-22T06:32:55.436Z,6.44
2022-09-22T06:33:54.428Z,6.46
2022-09-22T06:34:54.418Z,6.54
2022-09-22T06:35:54.411Z,6.52
2022-09-22T06:36:54.420Z,6.57
2022-09-22T06:37:54.389Z,6.54
2022-09-22T06:38:54.397Z,6.52
2022-09-22T06:39:54.375Z,6.59
2022-09-22T06:40:54.441Z,6.54
2022-09-22T06:41:54.365Z,6.75
2022-09-22T06:42:54.371Z,6.82
2022-09-22T06:43:54.353Z,6.89
2022-09-22T06:44:54.355Z,6.99
2022-09-22T06:45:54.392Z,6.92
2022-09-22T06:46:54.315Z,6.96
2022-09-22T06:47:55.133Z,7.02
2022-09-22T06:48:54.298Z,7.00
2022-09-22T06:49:54.290Z,6.99
2022-09-22T06:50:54.304Z,7.15
2022-09-22T06:51:54.278Z,7.17
2022-09-22T06:52:54.263Z,7.17
2022-09-22T06:53:54.258Z,7.25
2022-09-22T06:54:54.256Z,7.23
2022-09-22T06:55:54.572Z,7.25
2022-09-22T06:56:54.241Z,7.33
2022-09-22T06:57:54.224Z,7.39
2022-09-22T06:59:09.406Z,7.35
2022-09-22T06:59:56.210Z,7.38
2022-09-22T07:00:54.447Z,7.43
2022-09-22T07:01:54.322Z,7.58
2022-09-22T07:02:54.193Z,7.63
2022-09-22T07:03:54.175Z,7.69
2022-09-22T07:04:54.166Z,7.63
2022-09-22T07:05:54.160Z,7.72
2022-09-22T07:06:54.152Z,7.63
2022-09-22T07:07:54.153Z,7.72
2022-09-22T07:08:54.135Z,7.66
2022-09-22T07:09:54.141Z,7.60
2022-09-22T07:10:54.117Z,7.58
2022-09-22T07:11:54.109Z,7.67
2022-09-22T07:12:54.111Z,7.72
2022-09-22T07:13:54.097Z,7.50
2022-09-22T07:14:54.077Z,7.32
2022-09-22T07:15:54.121Z,7.02
2022-09-22T07:16:54.063Z,7.06
2022-09-22T07:17:54.063Z,7.17
2022-09-22T07:18:54.057Z,7.03
2022-09-22T07:19:54.079Z,7.39
2022-09-22T07:20:54.046Z,7.33
2022-09-22T07:21:54.037Z,7.39
2022-09-22T07:22:54.030Z,7.56
2022-09-22T07:23:54.012Z,7.47
2022-09-22T07:24:53.995Z,7.29
2022-09-22T07:25:53.985Z,7.38
2022-09-22T07:26:53.986Z,7.51
2022-09-22T07:27:53.972Z,7.67
2022-09-22T07:28:53.974Z,7.77
2022-09-22T07:29:53.962Z,7.77
2022-09-22T07:30:53.963Z,7.76
2022-09-22T07:31:54.018Z,7.82
2022-09-22T07:32:53.929Z,7.69
2022-09-22T07:33:54.644Z,7.82
2022-09-22T07:34:53.913Z,7.82
2022-09-22T07:35:53.935Z,8.09
2022-09-22T07:36:53.903Z,8.16
2022-09-22T07:37:53.884Z,8.09
2022-09-22T07:38:53.877Z,8.06
2022-09-22T07:39:53.882Z,8.08
2022-09-22T07:40:53.863Z,8.16
2022-09-22T07:41:53.861Z,8.18
2022-09-22T07:42:53.846Z,8.34
2022-09-22T07:43:53.837Z,8.37
2022-09-22T07:44:53.839Z,8.48
2022-09-22T07:45:53.830Z,8.55
2022-09-22T07:46:53.873Z,8.48
2022-09-22T07:47:53.817Z,8.67
2022-09-22T07:48:53.798Z,8.67
2022-09-22T07:49:53.798Z,8.63
2022-09-22T07:50:53.787Z,8.76
2022-09-22T07:51:53.786Z,8.81
2022-09-22T07:52:53.773Z,8.87
2022-09-22T07:53:53.764Z,8.94
2022-09-22T07:54:53.759Z,8.99
2022-09-22T07:55:53.799Z,9.10
2022-09-22T07:56:53.737Z,9.14
2022-09-22T07:57:53.732Z,9.28
2022-09-22T07:58:53.726Z,9.46
2022-09-22T07:59:53.703Z,9.62
2022-09-22T08:00:54.744Z,9.29
2022-09-22T08:01:53.776Z,9.21
2022-09-22T08:02:53.703Z,9.19
2022-09-22T08:03:53.676Z,9.23
2022-09-22T08:04:53.673Z,9.29
2022-09-22T08:05:54.796Z,9.29
2022-09-22T08:06:53.652Z,9.19
2022-09-22T08:07:53.653Z,9.23
2022-09-22T08:08:53.656Z,9.18
2022-09-22T08:09:53.667Z,9.36
2022-09-22T08:10:53.624Z,9.46
2022-09-22T08:11:53.716Z,9.55
2022-09-22T08:12:53.609Z,9.61
2022-09-22T08:13:53.600Z,9.62
2022-09-22T08:14:53.597Z,9.80
2022-09-22T08:15:53.627Z,9.92
2022-09-22T08:16:54.011Z,9.87
2022-09-22T08:17:53.569Z,9.97
2022-09-22T08:18:53.563Z,9.95
2022-09-22T08:19:53.568Z,9.86
2022-09-22T08:20:53.543Z,9.66
2022-09-22T08:21:53.571Z,9.91
2022-09-22T08:22:53.534Z,10.07
2022-09-22T08:23:53.521Z,10.17
2022-09-22T08:24:53.516Z,10.38
2022-09-22T08:25:53.506Z,10.56
2022-09-22T08:26:53.495Z,10.61
2022-09-22T08:27:53.482Z,10.63
2022-09-22T08:28:53.686Z,10.71
2022-09-22T08:29:53.474Z,10.89
2022-09-22T08:30:54.235Z,10.94
2022-09-22T08:31:53.501Z,10.99
2022-09-22T08:32:53.442Z,11.10
2022-09-22T08:33:53.444Z,11.12
2022-09-22T08:34:53.430Z,11.14
2022-09-22T08:35:53.425Z,11.07
2022-09-22T08:36:54.164Z,11.15
2022-09-22T08:37:53.431Z,11.19
2022-09-22T08:38:53.397Z,11.33
2022-09-22T08:39:54.240Z,11.27
2022-09-22T08:40:53.414Z,11.36
2022-09-22T08:41:53.370Z,11.43
2022-09-22T08:42:54.435Z,11.41
2022-09-22T08:43:53.357Z,11.26
2022-09-22T08:44:53.354Z,11.19
2022-09-22T08:45:53.362Z,11.05
2022-09-22T08:46:53.405Z,10.97
2022-09-22T08:47:53.325Z,10.78
2022-09-22T08:48:53.331Z,10.87
2022-09-22T08:49:53.312Z,10.71
2022-09-22T08:50:53.305Z,10.69
2022-09-22T08:51:53.289Z,10.60
2022-09-22T08:52:53.285Z,10.54
2022-09-22T08:53:53.273Z,10.56
2022-09-22T08:54:53.267Z,10.42
2022-09-22T08:56:59.542Z,10.31
2022-09-22T08:57:59.547Z,10.33
2022-09-22T08:59:00.624Z,10.34
2022-09-22T09:00:00.645Z,10.33
2022-09-22T09:01:00.621Z,10.35
2022-09-22T09:02:00.670Z,10.38
2022-09-22T09:03:00.624Z,10.35
2022-09-22T09:04:00.669Z,10.51
2022-09-22T09:05:00.661Z,10.51
2022-09-22T09:06:00.563Z,10.49
2022-09-22T09:07:00.622Z,10.51
2022-09-22T09:08:00.577Z,10.48
2022-09-22T09:09:04.786Z,10.51
2022-09-22T09:10:01.605Z,10.60
2022-09-22T09:11:00.519Z,10.56
2022-09-22T09:12:00.527Z,10.63
2022-09-22T09:13:00.547Z,10.75
2022-09-22T09:14:00.602Z,10.75
2022-09-22T09:15:00.488Z,10.92
2022-09-22T09:16:00.563Z,10.97
2022-09-22T09:17:00.477Z,11.04
2022-09-22T09:18:00.472Z,11.10
2022-09-22T09:19:00.467Z,11.14
2022-09-22T09:20:00.453Z,11.27
2022-09-22T09:21:00.447Z,11.30
2022-09-22T09:22:00.455Z,11.33
2022-09-22T09:23:00.479Z,11.41
2022-09-22T09:26:02.408Z,11.63
2022-09-22T09:27:00.393Z,11.52
2022-09-22T09:28:00.422Z,11.65
2022-09-22T09:29:05.891Z,11.70
2022-09-22T09:30:02.386Z,11.83
2022-09-22T09:31:00.393Z,11.80
2022-09-22T09:32:00.918Z,11.95
2022-09-22T09:33:00.354Z,11.91
2022-09-22T09:34:00.346Z,11.99
2022-09-22T09:35:00.418Z,11.99
2022-09-22T09:36:00.917Z,12.03
2022-09-22T09:37:00.330Z,12.10
2022-09-22T09:38:00.309Z,12.09
2022-09-22T09:39:00.348Z,12.21
2022-09-22T09:40:00.298Z,12.40
2022-09-22T09:41:00.312Z,12.39
2022-09-22T09:42:00.273Z,12.49
2022-09-22T09:43:01.666Z,12.53
2022-09-22T09:44:00.270Z,12.61
2022-09-22T09:45:00.260Z,12.65
2022-09-22T09:46:00.337Z,12.76
2022-09-22T09:47:00.232Z,12.90
2022-09-22T09:48:00.237Z,12.87
2022-09-22T09:49:00.246Z,12.95
2022-09-22T09:50:00.250Z,13.08
2022-09-22T09:51:00.226Z,13.03
2022-09-22T09:52:00.196Z,13.01
2022-09-22T09:53:00.202Z,13.13
2022-09-22T09:54:00.181Z,13.16
2022-09-22T09:55:00.207Z,13.13
2022-09-22T09:56:00.182Z,13.18
2022-09-22T09:57:00.162Z,13.25
2022-09-22T09:58:00.146Z,13.33
2022-09-22T09:59:00.266Z,13.39
2022-09-22T10:00:00.627Z,13.33
2022-09-22T10:01:00.123Z,13.44
2022-09-22T10:02:00.226Z,13.57
2022-09-22T10:03:02.997Z,13.60
2022-09-22T10:04:00.219Z,13.62
2022-09-22T10:05:00.093Z,13.74
2022-09-22T10:06:00.079Z,13.83
2022-09-22T10:07:01.551Z,13.85
2022-09-22T10:08:01.154Z,13.99
2022-09-22T10:09:00.114Z,13.92
2022-09-22T10:10:00.191Z,14.03
2022-09-22T10:11:00.064Z,14.04
2022-09-22T10:12:00.038Z,14.17
2022-09-22T10:13:00.064Z,14.17
2022-09-22T10:14:00.015Z,14.23
2022-09-22T10:15:00.018Z,14.29
2022-09-22T10:16:00.028Z,14.32
2022-09-22T10:17:00.009Z,14.45
2022-09-22T10:18:00.004Z,14.53
2022-09-22T10:18:59.976Z,14.53
2022-09-22T10:19:59.973Z,14.66
2022-09-22T10:20:59.966Z,14.73
2022-09-22T10:21:59.971Z,14.68
2022-09-22T10:22:59.964Z,14.78
2022-09-22T10:23:59.970Z,14.82
2022-09-22T10:24:59.930Z,14.92
2022-09-22T10:25:59.919Z,14.94
2022-09-22T10:27:02.535Z,15.07
2022-09-22T10:28:00.909Z,15.09
2022-09-22T10:28:59.890Z,15.18
2022-09-22T10:29:59.886Z,15.18
2022-09-22T10:30:59.933Z,15.25
2022-09-22T10:31:59.900Z,15.33
2022-09-22T10:32:59.860Z,15.40
2022-09-22T10:33:59.853Z,15.35
2022-09-22T10:34:59.855Z,15.51
2022-09-22T10:35:59.837Z,15.55
2022-09-22T10:36:59.867Z,15.54
2022-09-22T10:37:59.827Z,15.64
2022-09-22T10:39:00.213Z,15.73
2022-09-22T10:39:59.803Z,15.72
2022-09-22T10:40:59.793Z,15.79
2022-09-22T10:41:59.792Z,15.80
2022-09-22T10:42:59.774Z,15.88
2022-09-22T10:44:03.115Z,15.91
2022-09-22T10:45:01.763Z,16.00
2022-09-22T10:45:59.764Z,15.94
2022-09-22T10:46:59.748Z,16.13
2022-09-22T10:47:59.748Z,16.04
2022-09-22T10:49:00.553Z,16.24
2022-09-22T10:49:59.724Z,16.10
2022-09-22T10:50:59.707Z,16.29
2022-09-22T10:51:59.706Z,16.21
2022-09-22T10:52:59.727Z,16.16
2022-09-22T10:53:59.707Z,16.24
2022-09-22T10:54:59.700Z,16.24
2022-09-22T10:55:59.668Z,16.46
2022-09-22T10:56:59.671Z,16.53
2022-09-22T10:57:59.666Z,16.56
2022-09-22T10:58:59.672Z,16.64
2022-09-22T10:59:59.640Z,16.56
2022-09-22T11:01:01.059Z,16.51
2022-09-22T11:01:59.884Z,16.56
2022-09-22T11:02:59.644Z,16.57
2022-09-22T11:03:59.865Z,16.54
2022-09-22T11:04:59.660Z,16.69
2022-09-22T11:05:59.617Z,16.65
2022-09-22T11:06:59.572Z,16.68
2022-09-22T11:07:59.581Z,16.69
2022-09-22T11:08:59.607Z,16.65
2022-09-22T11:09:59.552Z,16.60
2022-09-22T11:10:59.563Z,16.66
2022-09-22T11:11:59.540Z,16.74
2022-09-22T11:12:59.527Z,16.69
2022-09-22T11:13:59.670Z,16.72
2022-09-22T11:14:59.533Z,16.75
2022-09-22T11:15:59.548Z,16.79
2022-09-22T11:16:59.521Z,16.90
2022-09-22T11:17:59.492Z,16.90
2022-09-22T11:18:59.485Z,16.76
2022-09-22T11:19:59.491Z,16.96
2022-09-22T11:20:59.482Z,17.01
2022-09-22T11:21:59.470Z,16.97
2022-09-22T11:22:59.453Z,17.06
2022-09-22T11:23:59.438Z,17.11
2022-09-22T11:24:59.439Z,17.15
2022-09-22T11:25:59.478Z,17.26
2022-09-22T11:26:59.428Z,17.26
2022-09-22T11:27:59.419Z,17.34
2022-09-22T11:28:59.402Z,17.29
2022-09-22T11:29:59.413Z,17.38
2022-09-22T11:30:59.482Z,17.52
2022-09-22T11:31:59.406Z,17.60
2022-09-22T11:32:59.426Z,17.71
2022-09-22T11:33:59.361Z,17.83
2022-09-22T11:34:59.363Z,17.86
2022-09-22T11:35:59.348Z,17.92
2022-09-22T11:36:59.341Z,17.80
2022-09-22T11:37:59.339Z,17.83
2022-09-22T11:38:59.328Z,17.97
2022-09-22T11:39:59.307Z,18.00
2022-09-22T11:41:00.432Z,18.00
2022-09-22T11:41:59.295Z,18.03
2022-09-22T11:43:02.143Z,18.03
2022-09-22T11:44:00.361Z,18.04
2022-09-22T11:44:59.274Z,18.08
2022-09-22T11:45:59.288Z,18.19
2022-09-22T11:47:00.254Z,18.16
2022-09-22T11:47:59.248Z,18.05
2022-09-22T11:48:59.232Z,18.03
2022-09-22T11:49:59.235Z,18.11
2022-09-22T11:50:59.213Z,18.26
2022-09-22T11:51:59.213Z,18.29
2022-09-22T11:52:59.198Z,18.35
2022-09-22T11:53:59.286Z,18.37
2022-09-22T11:55:01.114Z,18.45
2022-09-22T11:56:00.180Z,18.40
2022-09-22T11:56:59.162Z,18.38
2022-09-22T11:57:59.164Z,18.53
2022-09-22T11:58:59.170Z,18.47
2022-09-22T11:59:59.141Z,18.52
2022-09-22T12:00:59.149Z,18.40
2022-09-22T12:01:59.177Z,18.43
2022-09-22T12:03:02.033Z,18.43
2022-09-22T12:04:00.124Z,18.44
2022-09-22T12:04:59.106Z,18.58
2022-09-22T12:05:59.108Z,18.71
2022-09-22T12:06:59.095Z,18.86
2022-09-22T12:07:59.079Z,18.89
2022-09-22T12:08:59.086Z,18.86
2022-09-22T12:09:59.065Z,18.98
2022-09-22T12:10:59.057Z,19.00
2022-09-22T12:11:59.968Z,19.11
2022-09-22T12:13:00.539Z,18.98
2022-09-22T12:13:59.080Z,18.93
2022-09-22T12:14:59.049Z,18.71
2022-09-22T12:15:59.204Z,18.81
2022-09-22T12:16:59.003Z,18.49
2022-09-22T12:17:59.012Z,18.52
2022-09-22T12:19:00.065Z,18.53
2022-09-22T12:19:59.030Z,18.71
2022-09-22T12:20:58.981Z,18.78
2022-09-22T12:21:58.981Z,18.74
2022-09-22T12:22:58.963Z,18.89
2022-09-22T12:23:59.026Z,19.04
2022-09-22T12:24:59.559Z,18.81
2022-09-22T12:25:58.937Z,18.73
2022-09-22T12:26:58.935Z,18.75
2022-09-22T12:27:58.955Z,18.73
2022-09-22T12:28:58.916Z,18.74
2022-09-22T12:29:58.903Z,18.73
2022-09-22T12:30:59.045Z,18.63
2022-09-22T12:31:58.908Z,18.62
2022-09-22T12:32:58.874Z,18.60
2022-09-22T12:33:58.950Z,18.62
2022-09-22T12:34:58.864Z,18.66
2022-09-22T12:35:58.855Z,18.74
2022-09-22T12:36:58.855Z,18.74
2022-09-22T12:37:58.834Z,18.78
2022-09-22T12:38:58.840Z,18.80
2022-09-22T12:39:58.820Z,18.75
2022-09-22T12:40:58.811Z,18.62
2022-09-22T12:41:58.814Z,18.43
2022-09-22T12:42:58.802Z,18.50
2022-09-22T12:43:58.790Z,18.49
2022-09-22T12:44:58.787Z,18.56
2022-09-22T12:45:58.826Z,18.58
2022-09-22T12:46:58.773Z,18.70
2022-09-22T12:47:59.476Z,18.70
2022-09-22T12:48:58.797Z,18.66
2022-09-22T12:49:59.767Z,18.73
2022-09-22T12:50:58.766Z,18.77
2022-09-22T12:51:59.182Z,18.77
2022-09-22T12:52:58.731Z,18.78
2022-09-22T12:53:59.711Z,18.78
2022-09-22T12:54:58.804Z,18.75
2022-09-22T12:55:59.475Z,18.70
2022-09-22T12:56:58.725Z,18.50
2022-09-22T12:57:58.731Z,18.53
2022-09-22T12:58:58.734Z,18.52
2022-09-22T12:59:58.655Z,18.49
2022-09-22T13:00:58.682Z,18.29
2022-09-22T13:01:58.700Z,18.26
2022-09-22T13:02:59.641Z,18.29
2022-09-22T13:03:58.634Z,18.43
2022-09-22T13:04:58.617Z,18.52
2022-09-22T13:05:58.609Z,18.62
2022-09-22T13:06:58.614Z,18.73
2022-09-22T13:07:58.606Z,18.84
2022-09-22T13:08:58.582Z,18.95
2022-09-22T13:09:59.608Z,19.08
2022-09-22T13:10:58.578Z,19.16
2022-09-22T13:11:58.576Z,19.24
2022-09-22T13:12:58.558Z,19.21